Главная страница
METAR-TAF:

METAR-TAF

Аэропорты :

Днепропетровск, Украина

широта: 48-21-26N, долгота: 035-06-02E, высота над уровнем моря: 147 м

Текущие метеонаблюдения

Эта сводка был подготовлена 41 минут назад, в 01:00 UTC
Ветер 8 Узел от северо-северо-восточный
Температура 11°C
Влажность 82%
Давление 1027 hPa
Видимость 10 км и более
Нет облачности ниже 1500 м, и нет кучево-дождевой облачности

METAR: UKDD 160100Z 03004MPS CAVOK 11/08 Q1027 R08/090070 NOSIG

Время: 04:41 (01:41 UTC)

Прогноз

Эта сводка был подготовлена 2 часа и 40 минут назад, в 23:01 UTC
Прогноз действительный с 16-го 00 UTC до 16-го 24 UTC
Ветер 6 Узел от восточно-северо-восточный
Видимость 10 км и более
Нет облачности ниже 1500 м, и нет кучево-дождевой облачности
временами
С 16-го 00 UTC до 16-го 06 UTC
Видимость: 2100 м
Отдельные облака на высоте 600 фута
дымка

TAF: UKDD 152301Z 1600/1624 07003MPS CAVOK TX25/1612Z TN09/1603Z TEMPO 1600/1606 2100 BR SCT006

Метеонаблюдения и прогнозы для более 4000 аэропортов (сводки METAR и TAF).

Имеющиеся станции представлены на карте желтыми и красными точками.

Чтобы увидеть название станции, наведите на нее мышь.

Затем щелкните, чтобы увидеть метеонаблюдения и метеопрогнозы.

Управление картой: чтобы увеличить масштаб, щелкните зеленые кнопки с черным крестиком; чтобы уменьшить масштаб, щелкните зеленую кнопку с тире; для просмотра соседних карт щелкайте зеленые стрелки.


METAR-TAF: